sensor_id;sensor_type;location;lat;lon;timestamp;temperature;humidity
16229;DHT22;8222;51.462;12.630;2022-10-16T00:00:21;17.50;99.90
16229;DHT22;8222;51.462;12.630;2022-10-16T00:02:46;17.60;99.90
16229;DHT22;8222;51.462;12.630;2022-10-16T00:05:12;17.70;99.90
16229;DHT22;8222;51.462;12.630;2022-10-16T00:07:38;17.80;99.90
16229;DHT22;8222;51.462;12.630;2022-10-16T00:10:03;17.80;99.90
16229;DHT22;8222;51.462;12.630;2022-10-16T00:12:29;17.80;99.90
16229;DHT22;8222;51.462;12.630;2022-10-16T00:14:55;17.80;99.90
16229;DHT22;8222;51.462;12.630;2022-10-16T00:17:20;17.90;99.90
16229;DHT22;8222;51.462;12.630;2022-10-16T00:19:46;18.00;99.90
16229;DHT22;8222;51.462;12.630;2022-10-16T00:22:12;17.80;99.90
16229;DHT22;8222;51.462;12.630;2022-10-16T00:24:37;17.80;99.90
16229;DHT22;8222;51.462;12.630;2022-10-16T00:27:03;17.70;99.90
16229;DHT22;8222;51.462;12.630;2022-10-16T00:29:28;17.70;99.90
16229;DHT22;8222;51.462;12.630;2022-10-16T00:31:56;17.60;99.90
16229;DHT22;8222;51.462;12.630;2022-10-16T00:34:21;17.60;99.90
16229;DHT22;8222;51.462;12.630;2022-10-16T00:36:47;17.50;99.90
16229;DHT22;8222;51.462;12.630;2022-10-16T00:39:13;17.40;99.90
16229;DHT22;8222;51.462;12.630;2022-10-16T00:41:38;17.50;99.90
16229;DHT22;8222;51.462;12.630;2022-10-16T00:47:30;17.50;99.90
16229;DHT22;8222;51.462;12.630;2022-10-16T00:50:06;17.50;99.90
16229;DHT22;8222;51.462;12.630;2022-10-16T00:52:33;17.40;99.90
16229;DHT22;8222;51.462;12.630;2022-10-16T00:55:00;17.50;99.90
16229;DHT22;8222;51.462;12.630;2022-10-16T00:57:26;17.60;99.90
16229;DHT22;8222;51.462;12.630;2022-10-16T00:59:52;17.80;99.90
16229;DHT22;8222;51.462;12.630;2022-10-16T01:02:18;17.80;99.90
16229;DHT22;8222;51.462;12.630;2022-10-16T01:04:51;17.90;99.90
16229;DHT22;8222;51.462;12.630;2022-10-16T01:07:48;17.90;99.90
16229;DHT22;8222;51.462;12.630;2022-10-16T01:15:35;17.80;99.90
16229;DHT22;8222;51.462;12.630;2022-10-16T01:18:16;17.80;99.90
16229;DHT22;8222;51.462;12.630;2022-10-16T01:20:56;17.70;99.90
16229;DHT22;8222;51.462;12.630;2022-10-16T01:26:10;17.70;99.90
16229;DHT22;8222;51.462;12.630;2022-10-16T01:31:11;17.60;99.90
16229;DHT22;8222;51.462;12.630;2022-10-16T01:33:47;17.50;99.90
16229;DHT22;8222;51.462;12.630;2022-10-16T01:36:22;17.30;99.90
16229;DHT22;8222;51.462;12.630;2022-10-16T01:38:52;17.30;99.90
16229;DHT22;8222;51.462;12.630;2022-10-16T01:41:29;17.30;99.90
16229;DHT22;8222;51.462;12.630;2022-10-16T01:44:08;17.40;99.90
16229;DHT22;8222;51.462;12.630;2022-10-16T01:46:37;17.30;99.90
16229;DHT22;8222;51.462;12.630;2022-10-16T01:49:06;17.30;99.90
16229;DHT22;8222;51.462;12.630;2022-10-16T01:51:35;17.30;99.90
16229;DHT22;8222;51.462;12.630;2022-10-16T01:54:02;17.10;99.90
16229;DHT22;8222;51.462;12.630;2022-10-16T01:56:29;17.10;99.90
16229;DHT22;8222;51.462;12.630;2022-10-16T01:59:02;17.20;99.90
16229;DHT22;8222;51.462;12.630;2022-10-16T02:01:31;17.20;99.90
16229;DHT22;8222;51.462;12.630;2022-10-16T02:04:02;17.20;99.90
16229;DHT22;8222;51.462;12.630;2022-10-16T02:06:28;17.10;99.90
16229;DHT22;8222;51.462;12.630;2022-10-16T02:08:55;17.10;99.90
16229;DHT22;8222;51.462;12.630;2022-10-16T02:11:20;17.10;99.90
16229;DHT22;8222;51.462;12.630;2022-10-16T02:14:00;17.10;99.90
16229;DHT22;8222;51.462;12.630;2022-10-16T02:16:41;17.00;99.90
16229;DHT22;8222;51.462;12.630;2022-10-16T02:19:07;17.00;99.90
16229;DHT22;8222;51.462;12.630;2022-10-16T02:24:35;16.90;99.90
16229;DHT22;8222;51.462;12.630;2022-10-16T02:27:11;16.90;99.90
16229;DHT22;8222;51.462;12.630;2022-10-16T02:29:42;17.00;99.90
16229;DHT22;8222;51.462;12.630;2022-10-16T02:32:12;17.00;99.90
16229;DHT22;8222;51.462;12.630;2022-10-16T02:34:40;17.00;99.90
16229;DHT22;8222;51.462;12.630;2022-10-16T02:37:07;17.00;99.90
16229;DHT22;8222;51.462;12.630;2022-10-16T02:39:34;16.90;99.90
16229;DHT22;8222;51.462;12.630;2022-10-16T02:42:00;17.00;99.90
16229;DHT22;8222;51.462;12.630;2022-10-16T02:44:25;16.90;99.90
16229;DHT22;8222;51.462;12.630;2022-10-16T02:46:51;17.00;99.90
16229;DHT22;8222;51.462;12.630;2022-10-16T02:49:17;16.90;99.90
16229;DHT22;8222;51.462;12.630;2022-10-16T02:51:43;16.90;99.90
16229;DHT22;8222;51.462;12.630;2022-10-16T02:54:09;16.80;99.90
16229;DHT22;8222;51.462;12.630;2022-10-16T02:56:34;16.80;99.90
16229;DHT22;8222;51.462;12.630;2022-10-16T02:59:00;16.70;99.90
16229;DHT22;8222;51.462;12.630;2022-10-16T03:01:25;16.80;99.90
16229;DHT22;8222;51.462;12.630;2022-10-16T03:03:51;16.80;99.90
16229;DHT22;8222;51.462;12.630;2022-10-16T03:06:19;16.80;99.90
16229;DHT22;8222;51.462;12.630;2022-10-16T03:08:44;16.80;99.90
16229;DHT22;8222;51.462;12.630;2022-10-16T03:11:10;16.90;99.90
16229;DHT22;8222;51.462;12.630;2022-10-16T03:13:35;16.90;99.90
16229;DHT22;8222;51.462;12.630;2022-10-16T03:16:03;16.90;99.90
16229;DHT22;8222;51.462;12.630;2022-10-16T03:18:29;16.80;99.90
16229;DHT22;8222;51.462;12.630;2022-10-16T03:20:54;16.90;99.90
16229;DHT22;8222;51.462;12.630;2022-10-16T03:23:20;17.00;99.90
16229;DHT22;8222;51.462;12.630;2022-10-16T03:25:45;17.00;99.90
16229;DHT22;8222;51.462;12.630;2022-10-16T03:28:11;17.00;99.90
16229;DHT22;8222;51.462;12.630;2022-10-16T03:30:37;17.00;99.90
16229;DHT22;8222;51.462;12.630;2022-10-16T03:33:05;16.90;99.90
16229;DHT22;8222;51.462;12.630;2022-10-16T03:35:31;16.90;99.90
16229;DHT22;8222;51.462;12.630;2022-10-16T03:37:58;16.80;99.90
16229;DHT22;8222;51.462;12.630;2022-10-16T03:40:24;16.80;99.90
16229;DHT22;8222;51.462;12.630;2022-10-16T03:42:49;16.90;99.90
16229;DHT22;8222;51.462;12.630;2022-10-16T03:45:15;16.90;99.90
16229;DHT22;8222;51.462;12.630;2022-10-16T03:47:41;17.00;99.90
16229;DHT22;8222;51.462;12.630;2022-10-16T03:50:07;16.90;99.90
16229;DHT22;8222;51.462;12.630;2022-10-16T03:52:35;17.00;99.90
16229;DHT22;8222;51.462;12.630;2022-10-16T03:55:00;17.00;99.90
16229;DHT22;8222;51.462;12.630;2022-10-16T03:57:26;17.00;99.90
16229;DHT22;8222;51.462;12.630;2022-10-16T03:59:53;17.00;99.90
16229;DHT22;8222;51.462;12.630;2022-10-16T04:02:19;17.00;99.90
16229;DHT22;8222;51.462;12.630;2022-10-16T04:04:45;17.10;99.90
16229;DHT22;8222;51.462;12.630;2022-10-16T04:07:10;17.00;99.90
16229;DHT22;8222;51.462;12.630;2022-10-16T04:09:38;17.10;99.90
16229;DHT22;8222;51.462;12.630;2022-10-16T04:12:03;16.90;99.90
16229;DHT22;8222;51.462;12.630;2022-10-16T04:14:29;16.90;99.90
16229;DHT22;8222;51.462;12.630;2022-10-16T04:16:54;17.00;99.90
16229;DHT22;8222;51.462;12.630;2022-10-16T04:19:22;16.90;99.90
16229;DHT22;8222;51.462;12.630;2022-10-16T04:21:48;17.00;99.90
16229;DHT22;8222;51.462;12.630;2022-10-16T04:24:15;17.00;99.90
16229;DHT22;8222;51.462;12.630;2022-10-16T04:26:41;17.00;99.90
16229;DHT22;8222;51.462;12.630;2022-10-16T04:29:06;16.90;99.90
16229;DHT22;8222;51.462;12.630;2022-10-16T04:31:34;17.00;99.90
16229;DHT22;8222;51.462;12.630;2022-10-16T04:34:00;17.00;99.90
16229;DHT22;8222;51.462;12.630;2022-10-16T04:36:25;17.00;99.90
16229;DHT22;8222;51.462;12.630;2022-10-16T04:38:53;17.00;99.90
16229;DHT22;8222;51.462;12.630;2022-10-16T04:41:19;17.00;99.90
16229;DHT22;8222;51.462;12.630;2022-10-16T04:43:44;17.00;99.90
16229;DHT22;8222;51.462;12.630;2022-10-16T04:46:10;16.90;99.90
16229;DHT22;8222;51.462;12.630;2022-10-16T04:48:37;16.90;99.90
16229;DHT22;8222;51.462;12.630;2022-10-16T04:51:04;16.80;99.90
16229;DHT22;8222;51.462;12.630;2022-10-16T04:53:29;16.80;99.90
16229;DHT22;8222;51.462;12.630;2022-10-16T04:55:55;16.90;99.90
16229;DHT22;8222;51.462;12.630;2022-10-16T04:58:22;16.70;99.90
16229;DHT22;8222;51.462;12.630;2022-10-16T05:00:48;16.80;99.90
16229;DHT22;8222;51.462;12.630;2022-10-16T05:03:13;16.80;99.90
16229;DHT22;8222;51.462;12.630;2022-10-16T05:05:43;16.80;99.90
16229;DHT22;8222;51.462;12.630;2022-10-16T05:08:10;16.80;99.90
16229;DHT22;8222;51.462;12.630;2022-10-16T05:10:35;16.80;99.90
16229;DHT22;8222;51.462;12.630;2022-10-16T05:13:01;16.80;99.90
16229;DHT22;8222;51.462;12.630;2022-10-16T05:15:26;16.80;99.90
16229;DHT22;8222;51.462;12.630;2022-10-16T05:17:55;16.80;99.90
16229;DHT22;8222;51.462;12.630;2022-10-16T05:20:23;16.80;99.90
16229;DHT22;8222;51.462;12.630;2022-10-16T05:22:48;16.80;99.90
16229;DHT22;8222;51.462;12.630;2022-10-16T05:25:14;16.80;99.90
16229;DHT22;8222;51.462;12.630;2022-10-16T05:27:40;16.90;99.90
16229;DHT22;8222;51.462;12.630;2022-10-16T05:30:06;16.90;99.90
16229;DHT22;8222;51.462;12.630;2022-10-16T05:32:32;16.90;99.90
16229;DHT22;8222;51.462;12.630;2022-10-16T05:34:58;17.00;99.90
16229;DHT22;8222;51.462;12.630;2022-10-16T05:37:26;17.00;99.90
16229;DHT22;8222;51.462;12.630;2022-10-16T05:39:53;17.10;99.90
16229;DHT22;8222;51.462;12.630;2022-10-16T05:42:18;17.10;99.90
16229;DHT22;8222;51.462;12.630;2022-10-16T05:44:44;17.10;99.90
16229;DHT22;8222;51.462;12.630;2022-10-16T05:47:12;17.10;99.90
16229;DHT22;8222;51.462;12.630;2022-10-16T05:49:37;17.20;99.90
16229;DHT22;8222;51.462;12.630;2022-10-16T05:52:05;17.20;99.90
16229;DHT22;8222;51.462;12.630;2022-10-16T05:54:31;17.20;99.90
16229;DHT22;8222;51.462;12.630;2022-10-16T05:56:57;17.10;99.90
16229;DHT22;8222;51.462;12.630;2022-10-16T05:59:22;16.90;99.90
16229;DHT22;8222;51.462;12.630;2022-10-16T06:01:48;17.20;99.90
16229;DHT22;8222;51.462;12.630;2022-10-16T06:04:14;17.20;99.90
16229;DHT22;8222;51.462;12.630;2022-10-16T06:06:40;17.30;99.90
16229;DHT22;8222;51.462;12.630;2022-10-16T06:09:05;17.30;99.90
16229;DHT22;8222;51.462;12.630;2022-10-16T06:11:33;17.40;99.90
16229;DHT22;8222;51.462;12.630;2022-10-16T06:14:01;17.40;99.90
16229;DHT22;8222;51.462;12.630;2022-10-16T06:16:35;17.40;99.90
16229;DHT22;8222;51.462;12.630;2022-10-16T06:19:01;17.50;99.90
16229;DHT22;8222;51.462;12.630;2022-10-16T06:21:28;17.50;99.90
16229;DHT22;8222;51.462;12.630;2022-10-16T06:23:57;17.60;99.90
16229;DHT22;8222;51.462;12.630;2022-10-16T06:26:27;17.70;99.90
16229;DHT22;8222;51.462;12.630;2022-10-16T06:28:54;17.80;99.90
16229;DHT22;8222;51.462;12.630;2022-10-16T06:31:23;17.80;99.90
16229;DHT22;8222;51.462;12.630;2022-10-16T06:33:52;17.90;99.90
16229;DHT22;8222;51.462;12.630;2022-10-16T06:36:18;17.80;99.90
16229;DHT22;8222;51.462;12.630;2022-10-16T06:38:46;17.90;99.90
16229;DHT22;8222;51.462;12.630;2022-10-16T06:41:15;17.90;99.90
16229;DHT22;8222;51.462;12.630;2022-10-16T06:43:41;18.00;99.90
16229;DHT22;8222;51.462;12.630;2022-10-16T06:46:09;17.90;99.90
16229;DHT22;8222;51.462;12.630;2022-10-16T06:48:36;18.00;99.90
16229;DHT22;8222;51.462;12.630;2022-10-16T06:51:02;18.00;99.90
16229;DHT22;8222;51.462;12.630;2022-10-16T06:53:31;18.10;99.90
16229;DHT22;8222;51.462;12.630;2022-10-16T06:56:06;18.10;99.90
16229;DHT22;8222;51.462;12.630;2022-10-16T06:58:32;18.40;99.90
16229;DHT22;8222;51.462;12.630;2022-10-16T07:00:58;18.30;99.90
16229;DHT22;8222;51.462;12.630;2022-10-16T07:03:24;18.30;99.90
16229;DHT22;8222;51.462;12.630;2022-10-16T07:05:51;18.40;99.90
16229;DHT22;8222;51.462;12.630;2022-10-16T07:08:17;18.30;99.90
16229;DHT22;8222;51.462;12.630;2022-10-16T07:10:42;18.40;99.90
16229;DHT22;8222;51.462;12.630;2022-10-16T07:13:08;18.50;99.90
16229;DHT22;8222;51.462;12.630;2022-10-16T07:15:35;18.60;99.90
16229;DHT22;8222;51.462;12.630;2022-10-16T07:18:01;18.60;99.90
16229;DHT22;8222;51.462;12.630;2022-10-16T07:20:27;18.60;99.90
16229;DHT22;8222;51.462;12.630;2022-10-16T07:22:52;18.70;99.90
16229;DHT22;8222;51.462;12.630;2022-10-16T07:25:18;18.70;99.90
16229;DHT22;8222;51.462;12.630;2022-10-16T07:27:44;18.80;99.90
16229;DHT22;8222;51.462;12.630;2022-10-16T07:30:09;18.70;99.90
16229;DHT22;8222;51.462;12.630;2022-10-16T07:32:37;18.70;99.90
16229;DHT22;8222;51.462;12.630;2022-10-16T07:35:04;18.80;99.90
16229;DHT22;8222;51.462;12.630;2022-10-16T07:37:29;18.90;99.90
16229;DHT22;8222;51.462;12.630;2022-10-16T07:39:55;19.00;99.90
16229;DHT22;8222;51.462;12.630;2022-10-16T07:42:21;19.10;99.90
16229;DHT22;8222;51.462;12.630;2022-10-16T07:44:48;19.10;99.90
16229;DHT22;8222;51.462;12.630;2022-10-16T07:47:16;19.10;99.90
16229;DHT22;8222;51.462;12.630;2022-10-16T07:49:42;19.20;99.90
16229;DHT22;8222;51.462;12.630;2022-10-16T07:52:07;19.20;99.90
16229;DHT22;8222;51.462;12.630;2022-10-16T07:54:33;19.20;99.90
16229;DHT22;8222;51.462;12.630;2022-10-16T07:56:59;19.30;99.90
16229;DHT22;8222;51.462;12.630;2022-10-16T07:59:24;19.50;99.90
16229;DHT22;8222;51.462;12.630;2022-10-16T08:01:50;19.70;99.90
16229;DHT22;8222;51.462;12.630;2022-10-16T08:04:15;19.80;99.90
16229;DHT22;8222;51.462;12.630;2022-10-16T08:06:43;19.90;99.90
16229;DHT22;8222;51.462;12.630;2022-10-16T08:09:09;20.00;99.90
16229;DHT22;8222;51.462;12.630;2022-10-16T08:11:35;20.00;99.90
16229;DHT22;8222;51.462;12.630;2022-10-16T08:14:01;20.10;99.90
16229;DHT22;8222;51.462;12.630;2022-10-16T08:16:28;20.00;99.90
16229;DHT22;8222;51.462;12.630;2022-10-16T08:18:54;20.10;99.90
16229;DHT22;8222;51.462;12.630;2022-10-16T08:21:21;20.20;99.90
16229;DHT22;8222;51.462;12.630;2022-10-16T08:23:49;20.40;99.90
16229;DHT22;8222;51.462;12.630;2022-10-16T08:26:15;20.40;99.90
16229;DHT22;8222;51.462;12.630;2022-10-16T08:28:41;20.60;99.90
16229;DHT22;8222;51.462;12.630;2022-10-16T08:31:11;20.60;99.90
16229;DHT22;8222;51.462;12.630;2022-10-16T08:33:38;21.00;99.90
16229;DHT22;8222;51.462;12.630;2022-10-16T08:36:05;21.30;99.90
16229;DHT22;8222;51.462;12.630;2022-10-16T08:38:31;21.70;99.90
16229;DHT22;8222;51.462;12.630;2022-10-16T08:49:03;22.10;99.90
16229;DHT22;8222;51.462;12.630;2022-10-16T08:51:36;22.20;99.90
16229;DHT22;8222;51.462;12.630;2022-10-16T08:54:21;22.20;99.90
16229;DHT22;8222;51.462;12.630;2022-10-16T08:56:48;22.20;99.90
16229;DHT22;8222;51.462;12.630;2022-10-16T08:59:14;22.10;99.90
16229;DHT22;8222;51.462;12.630;2022-10-16T09:01:44;22.10;99.90
16229;DHT22;8222;51.462;12.630;2022-10-16T09:04:51;21.90;99.90
16229;DHT22;8222;51.462;12.630;2022-10-16T09:15:46;22.20;99.90
16229;DHT22;8222;51.462;12.630;2022-10-16T09:18:34;22.40;99.90
16229;DHT22;8222;51.462;12.630;2022-10-16T09:23:34;22.60;99.90
16229;DHT22;8222;51.462;12.630;2022-10-16T09:26:01;22.70;99.90
16229;DHT22;8222;51.462;12.630;2022-10-16T09:28:28;22.70;99.90
16229;DHT22;8222;51.462;12.630;2022-10-16T09:30:53;22.70;99.90
16229;DHT22;8222;51.462;12.630;2022-10-16T09:33:23;22.80;99.90
16229;DHT22;8222;51.462;12.630;2022-10-16T09:35:54;23.10;99.90
16229;DHT22;8222;51.462;12.630;2022-10-16T09:40:56;23.30;99.90
16229;DHT22;8222;51.462;12.630;2022-10-16T09:43:26;23.40;99.90
16229;DHT22;8222;51.462;12.630;2022-10-16T09:46:02;23.40;99.90
16229;DHT22;8222;51.462;12.630;2022-10-16T09:48:36;23.00;99.90
16229;DHT22;8222;51.462;12.630;2022-10-16T09:51:05;22.90;99.90
16229;DHT22;8222;51.462;12.630;2022-10-16T09:53:42;22.70;99.90
16229;DHT22;8222;51.462;12.630;2022-10-16T09:56:11;22.70;99.90
16229;DHT22;8222;51.462;12.630;2022-10-16T09:58:42;22.90;99.90
16229;DHT22;8222;51.462;12.630;2022-10-16T10:01:14;23.10;99.90
16229;DHT22;8222;51.462;12.630;2022-10-16T10:03:42;23.40;99.90
16229;DHT22;8222;51.462;12.630;2022-10-16T10:06:35;23.60;99.90
16229;DHT22;8222;51.462;12.630;2022-10-16T10:09:04;23.80;99.90
16229;DHT22;8222;51.462;12.630;2022-10-16T10:14:29;23.60;99.90
16229;DHT22;8222;51.462;12.630;2022-10-16T10:19:38;23.40;99.90
16229;DHT22;8222;51.462;12.630;2022-10-16T10:30:44;23.40;99.90
16229;DHT22;8222;51.462;12.630;2022-10-16T10:33:18;23.40;99.90
16229;DHT22;8222;51.462;12.630;2022-10-16T10:36:04;23.30;99.90
16229;DHT22;8222;51.462;12.630;2022-10-16T10:38:49;23.20;99.90
16229;DHT22;8222;51.462;12.630;2022-10-16T10:44:07;23.00;99.90
16229;DHT22;8222;51.462;12.630;2022-10-16T10:57:29;23.10;99.90
16229;DHT22;8222;51.462;12.630;2022-10-16T11:00:21;23.20;99.90
16229;DHT22;8222;51.462;12.630;2022-10-16T11:02:59;23.40;99.90
16229;DHT22;8222;51.462;12.630;2022-10-16T11:05:41;23.60;99.90
16229;DHT22;8222;51.462;12.630;2022-10-16T11:13:51;23.30;99.90
16229;DHT22;8222;51.462;12.630;2022-10-16T11:16:22;23.30;99.90
16229;DHT22;8222;51.462;12.630;2022-10-16T11:18:59;23.20;99.90
16229;DHT22;8222;51.462;12.630;2022-10-16T11:21:32;23.10;99.90
16229;DHT22;8222;51.462;12.630;2022-10-16T11:26:40;23.10;99.90
16229;DHT22;8222;51.462;12.630;2022-10-16T11:29:19;23.10;99.90
16229;DHT22;8222;51.462;12.630;2022-10-16T11:31:55;23.10;99.90
16229;DHT22;8222;51.462;12.630;2022-10-16T11:34:34;23.30;99.90
16229;DHT22;8222;51.462;12.630;2022-10-16T11:39:43;23.50;99.90
16229;DHT22;8222;51.462;12.630;2022-10-16T11:42:34;23.40;99.90
16229;DHT22;8222;51.462;12.630;2022-10-16T11:45:23;23.50;99.90
16229;DHT22;8222;51.462;12.630;2022-10-16T11:56:19;23.30;99.90
16229;DHT22;8222;51.462;12.630;2022-10-16T12:04:16;23.10;99.90
16229;DHT22;8222;51.462;12.630;2022-10-16T12:09:29;23.10;99.90
16229;DHT22;8222;51.462;12.630;2022-10-16T12:11:55;23.10;99.90
16229;DHT22;8222;51.462;12.630;2022-10-16T12:17:23;23.10;99.90
16229;DHT22;8222;51.462;12.630;2022-10-16T12:22:56;23.10;99.90
16229;DHT22;8222;51.462;12.630;2022-10-16T12:25:36;23.10;99.90
16229;DHT22;8222;51.462;12.630;2022-10-16T12:30:42;23.10;99.90
16229;DHT22;8222;51.462;12.630;2022-10-16T12:35:52;23.00;99.90
16229;DHT22;8222;51.462;12.630;2022-10-16T12:38:19;23.00;99.90
16229;DHT22;8222;51.462;12.630;2022-10-16T12:41:02;23.00;99.90
16229;DHT22;8222;51.462;12.630;2022-10-16T12:43:40;23.00;99.90
16229;DHT22;8222;51.462;12.630;2022-10-16T12:51:40;23.20;99.90
16229;DHT22;8222;51.462;12.630;2022-10-16T12:54:13;23.20;99.90
16229;DHT22;8222;51.462;12.630;2022-10-16T13:07:36;23.20;99.90
16229;DHT22;8222;51.462;12.630;2022-10-16T13:10:05;23.30;99.90
16229;DHT22;8222;51.462;12.630;2022-10-16T13:15:35;23.40;99.90
16229;DHT22;8222;51.462;12.630;2022-10-16T13:21:19;23.90;99.90
16229;DHT22;8222;51.462;12.630;2022-10-16T13:28:51;24.40;99.90
16229;DHT22;8222;51.462;12.630;2022-10-16T13:31:22;24.30;99.90
16229;DHT22;8222;51.462;12.630;2022-10-16T13:33:51;24.30;99.90
16229;DHT22;8222;51.462;12.630;2022-10-16T13:36:34;24.20;99.90
16229;DHT22;8222;51.462;12.630;2022-10-16T13:41:35;24.00;99.90
16229;DHT22;8222;51.462;12.630;2022-10-16T13:44:01;24.00;99.90
16229;DHT22;8222;51.462;12.630;2022-10-16T13:46:26;23.90;99.90
16229;DHT22;8222;51.462;12.630;2022-10-16T13:49:19;23.70;99.90
16229;DHT22;8222;51.462;12.630;2022-10-16T13:51:56;23.70;99.90
16229;DHT22;8222;51.462;12.630;2022-10-16T13:54:22;23.70;99.90
16229;DHT22;8222;51.462;12.630;2022-10-16T13:56:48;23.70;99.90
16229;DHT22;8222;51.462;12.630;2022-10-16T13:59:33;23.60;99.90
16229;DHT22;8222;51.462;12.630;2022-10-16T14:02:00;23.60;99.90
16229;DHT22;8222;51.462;12.630;2022-10-16T14:04:32;23.50;99.90
16229;DHT22;8222;51.462;12.630;2022-10-16T14:07:00;23.60;99.90
16229;DHT22;8222;51.462;12.630;2022-10-16T14:09:28;23.60;99.90
16229;DHT22;8222;51.462;12.630;2022-10-16T14:12:00;23.60;99.90
16229;DHT22;8222;51.462;12.630;2022-10-16T14:14:44;23.60;99.90
16229;DHT22;8222;51.462;12.630;2022-10-16T14:17:16;23.60;99.90
16229;DHT22;8222;51.462;12.630;2022-10-16T14:19:46;23.70;99.90
16229;DHT22;8222;51.462;12.630;2022-10-16T14:22:38;23.80;99.90
16229;DHT22;8222;51.462;12.630;2022-10-16T14:27:45;23.70;99.90
16229;DHT22;8222;51.462;12.630;2022-10-16T14:30:21;23.50;99.90
16229;DHT22;8222;51.462;12.630;2022-10-16T14:33:02;23.40;99.90
16229;DHT22;8222;51.462;12.630;2022-10-16T14:35:39;23.30;99.90
16229;DHT22;8222;51.462;12.630;2022-10-16T14:38:06;23.30;99.90
16229;DHT22;8222;51.462;12.630;2022-10-16T14:40:47;23.30;99.90
16229;DHT22;8222;51.462;12.630;2022-10-16T14:43:24;23.20;99.90
16229;DHT22;8222;51.462;12.630;2022-10-16T14:45:54;23.20;99.90
16229;DHT22;8222;51.462;12.630;2022-10-16T14:48:20;23.10;99.90
16229;DHT22;8222;51.462;12.630;2022-10-16T14:50:46;23.10;99.90
16229;DHT22;8222;51.462;12.630;2022-10-16T14:53:12;22.90;99.90
16229;DHT22;8222;51.462;12.630;2022-10-16T14:55:40;22.90;99.90
16229;DHT22;8222;51.462;12.630;2022-10-16T14:58:21;22.70;99.90
16229;DHT22;8222;51.462;12.630;2022-10-16T15:00:48;22.60;99.90
16229;DHT22;8222;51.462;12.630;2022-10-16T15:03:16;22.70;99.90
16229;DHT22;8222;51.462;12.630;2022-10-16T15:05:42;22.50;99.90
16229;DHT22;8222;51.462;12.630;2022-10-16T15:08:07;22.40;99.90
16229;DHT22;8222;51.462;12.630;2022-10-16T15:10:38;22.30;99.90
16229;DHT22;8222;51.462;12.630;2022-10-16T15:13:05;22.30;99.90
16229;DHT22;8222;51.462;12.630;2022-10-16T15:15:35;22.20;99.90
16229;DHT22;8222;51.462;12.630;2022-10-16T15:18:01;22.10;99.90
16229;DHT22;8222;51.462;12.630;2022-10-16T15:20:35;22.10;99.90
16229;DHT22;8222;51.462;12.630;2022-10-16T15:23:03;22.10;99.90
16229;DHT22;8222;51.462;12.630;2022-10-16T15:25:50;22.10;99.90
16229;DHT22;8222;51.462;12.630;2022-10-16T15:28:17;21.90;99.90
16229;DHT22;8222;51.462;12.630;2022-10-16T15:30:43;21.90;99.90
16229;DHT22;8222;51.462;12.630;2022-10-16T15:33:21;21.80;99.90
16229;DHT22;8222;51.462;12.630;2022-10-16T15:35:53;21.80;99.90
16229;DHT22;8222;51.462;12.630;2022-10-16T15:38:21;21.70;99.90
16229;DHT22;8222;51.462;12.630;2022-10-16T15:40:48;21.70;99.90
16229;DHT22;8222;51.462;12.630;2022-10-16T15:43:14;21.50;99.90
16229;DHT22;8222;51.462;12.630;2022-10-16T15:45:39;21.50;99.90
16229;DHT22;8222;51.462;12.630;2022-10-16T15:48:12;21.30;99.90
16229;DHT22;8222;51.462;12.630;2022-10-16T15:50:39;21.20;99.90
16229;DHT22;8222;51.462;12.630;2022-10-16T15:53:05;21.20;99.90
16229;DHT22;8222;51.462;12.630;2022-10-16T15:55:30;21.00;99.90
16229;DHT22;8222;51.462;12.630;2022-10-16T15:57:56;21.00;99.90
16229;DHT22;8222;51.462;12.630;2022-10-16T16:00:22;20.90;99.90
16229;DHT22;8222;51.462;12.630;2022-10-16T16:02:53;20.80;99.90
16229;DHT22;8222;51.462;12.630;2022-10-16T16:05:20;20.70;99.90
16229;DHT22;8222;51.462;12.630;2022-10-16T16:07:47;20.70;99.90
16229;DHT22;8222;51.462;12.630;2022-10-16T16:10:16;20.50;99.90
16229;DHT22;8222;51.462;12.630;2022-10-16T16:12:41;20.40;99.90
16229;DHT22;8222;51.462;12.630;2022-10-16T16:15:08;20.40;99.90
16229;DHT22;8222;51.462;12.630;2022-10-16T16:17:35;20.40;99.90
16229;DHT22;8222;51.462;12.630;2022-10-16T16:20:01;20.40;99.90
16229;DHT22;8222;51.462;12.630;2022-10-16T16:22:27;20.50;99.90
16229;DHT22;8222;51.462;12.630;2022-10-16T16:24:53;20.60;99.90
16229;DHT22;8222;51.462;12.630;2022-10-16T16:27:19;20.60;99.90
16229;DHT22;8222;51.462;12.630;2022-10-16T16:29:47;20.60;99.90
16229;DHT22;8222;51.462;12.630;2022-10-16T16:32:13;20.60;99.90
16229;DHT22;8222;51.462;12.630;2022-10-16T16:34:38;20.60;99.90
16229;DHT22;8222;51.462;12.630;2022-10-16T16:37:04;20.40;99.90
16229;DHT22;8222;51.462;12.630;2022-10-16T16:39:30;20.30;99.90
16229;DHT22;8222;51.462;12.630;2022-10-16T16:41:56;20.20;99.90
16229;DHT22;8222;51.462;12.630;2022-10-16T16:44:24;20.10;99.90
16229;DHT22;8222;51.462;12.630;2022-10-16T16:46:50;20.00;99.90
16229;DHT22;8222;51.462;12.630;2022-10-16T16:49:17;19.90;99.90
16229;DHT22;8222;51.462;12.630;2022-10-16T16:51:43;19.70;99.90
16229;DHT22;8222;51.462;12.630;2022-10-16T16:54:10;19.60;99.90
16229;DHT22;8222;51.462;12.630;2022-10-16T16:56:39;19.60;99.90
16229;DHT22;8222;51.462;12.630;2022-10-16T16:59:13;19.50;99.90
16229;DHT22;8222;51.462;12.630;2022-10-16T17:01:39;19.40;99.90
16229;DHT22;8222;51.462;12.630;2022-10-16T17:04:05;19.30;99.90
16229;DHT22;8222;51.462;12.630;2022-10-16T17:06:31;19.20;99.90
16229;DHT22;8222;51.462;12.630;2022-10-16T17:08:58;19.20;99.90
16229;DHT22;8222;51.462;12.630;2022-10-16T17:11:26;19.10;99.90
16229;DHT22;8222;51.462;12.630;2022-10-16T17:13:53;19.10;99.90
16229;DHT22;8222;51.462;12.630;2022-10-16T17:16:21;19.00;99.90
16229;DHT22;8222;51.462;12.630;2022-10-16T17:18:48;19.10;99.90
16229;DHT22;8222;51.462;12.630;2022-10-16T17:21:16;19.10;99.90
16229;DHT22;8222;51.462;12.630;2022-10-16T17:23:41;19.10;99.90
16229;DHT22;8222;51.462;12.630;2022-10-16T17:26:10;19.00;99.90
16229;DHT22;8222;51.462;12.630;2022-10-16T17:28:36;19.00;99.90
16229;DHT22;8222;51.462;12.630;2022-10-16T17:31:18;19.00;99.90
16229;DHT22;8222;51.462;12.630;2022-10-16T17:33:46;19.00;99.90
16229;DHT22;8222;51.462;12.630;2022-10-16T17:36:12;18.90;99.90
16229;DHT22;8222;51.462;12.630;2022-10-16T17:38:40;18.90;99.90
16229;DHT22;8222;51.462;12.630;2022-10-16T17:41:24;18.90;99.90
16229;DHT22;8222;51.462;12.630;2022-10-16T17:43:50;18.90;99.90
16229;DHT22;8222;51.462;12.630;2022-10-16T17:46:18;18.80;99.90
16229;DHT22;8222;51.462;12.630;2022-10-16T17:48:46;18.90;99.90
16229;DHT22;8222;51.462;12.630;2022-10-16T17:51:14;18.90;99.90
16229;DHT22;8222;51.462;12.630;2022-10-16T17:53:41;19.00;99.90
16229;DHT22;8222;51.462;12.630;2022-10-16T17:56:12;18.90;99.90
16229;DHT22;8222;51.462;12.630;2022-10-16T17:58:38;18.90;99.90